Tiempo atmosférico en la estación meteorológica de Cuenca, Cuenca (945 m.)



Fecha
DESCASC
Temp. máxima en grados centígrados (hora)
DESCASC
Temp. mínima en grados centígrados (hora)
DESCASC
Temp. media en grados centígrados
DESCASC
Racha de viento máxima en m/sg (hora)
DESCASC
Velocidad máxima media en intervalos de 10 minutos(hora)
DESCASC
Precipitaciones diarias en mm
DESCASC
Precipitaciones de 00:00 a 06:00 en mm
DESCASC
Precipitaciones de 06:00 a 12:00 en mm
DESCASC
Precipitaciones de 12:00 a 18:00 en mm
DESCASC
Precipitaciones de 18:00 a 24:00 en mm
DESCASC
10-07-2020 31.6 (16:30) 13.8 (05:20) 22.7 6.39 (19:00) 2.78 (17:00) 0 0 0 0 0
09-07-2020 27.9 (16:40) 15.6 (23:50) 21.8 14.72 (19:00) 6.39 (19:00) 10 1.4 0 3.2 5.4
08-07-2020 35 (15:30) 20.2 (06:30) 27.6 14.72 (16:50) 6.39 (19:00) 1.4 0 0 0 1.4
07-07-2020 36.6 (16:20) 19.8 (07:20) 28.2 8.33 (15:10) 3.61 (18:40) 0 0 0 0 0
06-07-2020 35.6 (16:20) 18.1 (00:00) 26.8 9.44 (15:00) 3.61 (15:20) 0 0 0 0 0
05-07-2020 34.9 (18:00) 16.7 (00:00) 25.8 6.67 (18:20) 3.33 (16:10) 0 0 0 0 0
04-07-2020 33.1 (18:00) 16.7 (00:00) 24.9 7.78 (17:40) 3.89 (00:10) 0 0 0 0 0
03-07-2020 31.4 (17:40) 16.1 (07:40) 23.8 6.39 (17:40) 3.06 (15:50) 0 0 0 0 0
02-07-2020 32.6 (16:10) 16.1 (00:00) 24.3 9.72 (15:20) 4.44 (14:20) 0 0 0 0 0
01-07-2020 34.2 (18:20) 18.1 (00:00) 26.2 10.83 (19:10) 4.17 (16:20) 0 0 0 0 0
30-06-2020 35.5 (18:20) 19.8 (00:00) 27.6 9.17 (17:00) 4.72 (21:10) 0 0 0 0 0
29-06-2020 35.2 (17:10) 18 (00:00) 26.6 8.06 (17:00) 4.44 (23:10) 0 0 0 0 0
28-06-2020 33.3 (17:20) 17 (00:00) 25.1 8.89 (14:30) 3.33 (15:10) 0 0 0 0 0
27-06-2020 31.8 (17:40) 14.5 (00:00) 23.1 7.5 (15:30) 2.78 (15:30) 0 0 0 0 0
26-06-2020 30.8 (18:20) 19.6 (00:00) 25.2 10.56 (03:40) 4.72 (04:00) 0 0 0 0 0
25-06-2020 32.8 (17:50) 17.4 (00:00) 25.1 11.94 (23:59) 6.11 (23:00) 0 0 0 0 0
24-06-2020 31 (17:40) 18.6 (00:00) 24.8 9.17 (04:30) 4.17 (07:00) 0 0 0 0 0
23-06-2020 34.2 (18:20) 17.8 (00:00) 26 8.61 (23:00) 4.72 (22:30) 0 0 0 0 0
22-06-2020 33.9 (18:30) 17.7 (00:00) 25.8 6.94 (22:40) 3.61 (22:50) 0 0 0 0 0
21-06-2020 33 (17:10) 13.4 (00:00) 23.2 7.5 (12:40) 3.06 (13:20) 0 0 0 0 0
20-06-2020 30.9 (17:50) 14.6 (00:00) 22.8 8.89 (15:40) 3.89 (00:40) 0 0 0 0 0
19-06-2020 28.8 (17:10) 15.7 (00:00) 22.2 8.89 (16:10) 3.89 (00:30) 0 0 0 0 0
18-06-2020 27.6 (18:50) 14 (00:00) 20.8 8.33 (23:20) 4.44 (23:30) 0 0 0 0 0
17-06-2020 25.1 (18:20) 10 (00:00) 17.6 7.5 (18:10) 3.61 (13:30) 0 0 0 0 0
16-06-2020 24.9 (16:10) 11 (00:00) 17.9 12.5 (21:50) 5.28 (21:50) 2.2 0 0 0 2.2
15-06-2020 27 (17:10) 10 (00:00) 18.5 9.44 (15:50) 3.89 (18:00) 0 0 0 0 0

Gráficas

Temp. máximas Temp. mínimas Temp. medias Precipitaciones Rachas de viento máximas Velocidades máximas media en intervalos de 10 minutos

Datos horarios

Fecha y hora oficial Temperatura (ºC) Velocidad del viento (km/h) Dirección del viento Racha (km/h) Dirección de racha Precipitación (mm) Presión (hPa) Tendencia (hPa) Humedad (%)
2020-07-14 23:00:00 16.6 0 Calma 12 Sudoeste 0 909.8 1.5 79
2020-07-14 22:00:00 17.4 3 Sudoeste 12 Sur 0 909.5 0.3 78
2020-07-14 21:00:00 18.3 5 Sur 12 Sur 0 909.1 1.5 77
2020-07-14 20:00:00 18.2 4 Norte 27 Sudeste 1.2 908.3 1.3 79
2020-07-14 19:00:00 16.6 12 Sudeste 41 Sur 2.8 909.2 1.5 87
2020-07-14 18:00:00 23.2 13 Este 34 Nordeste 0 907.6 -0.1 49
2020-07-14 17:00:00 25.8 4 Sudoeste 11 Oeste 0.6 907 -2 55
2020-07-14 16:00:00 25.6 6 Oeste 23 Sur 0 907.7 -1.8 55
2020-07-14 15:00:00 28.5 10 Sur 21 Sur 0 907.7 -2 40
2020-07-14 14:00:00 27.4 7 Sur 17 Sudeste 0 909 -1.1 44
2020-07-14 13:00:00 26.8 7 Sudoeste 19 Sur 0 909.5 -0.9 46
2020-07-14 12:00:00 24.7 8 Sudeste 21 Sudeste 0 909.7 -0.8 52
2020-07-14 11:00:00 23.7 9 Sudeste 26 Sudeste 0 910.1 -0.5 57
2020-07-14 10:00:00 22.3 11 Sudeste 25 Sudeste 0 910.4 -0.4 61
2020-07-14 09:00:00 20.1 4 Sur 9 Sur 0 910.5 -0.3 72
2020-07-14 08:00:00 18.2 2 Sudoeste 6 Oeste 0 910.6 -0.3 80
2020-07-14 07:00:00 18.2 3 Oeste 7 Oeste 0 910.8 -0.5 82
2020-07-14 06:00:00 18.6 0 Calma 6 Este 0 910.8 -0.8 79
2020-07-14 05:00:00 18.9 4 Sudeste 8 Sur 0 910.9 -0.9 79
2020-07-14 04:00:00 19.5 3 Sur 12 Sudeste 0 911.3 -0.6 76
2020-07-14 03:00:00 20.2 5 Sur 16 Sudeste 0 911.6 -- 73
2020-07-14 02:00:00 20.9 7 Sudeste 19 Sudeste 0 911.8 -- 72
2020-07-14 01:00:00 22.2 7 Sudeste 22 Sudeste 0 911.9 -- 66
2020-07-14 00:00:00 23.8 11 Sudeste 25 Sudeste 0 911.8 -- 59
2020-07-13 23:00:00 25.9 8 Este 17 Este 0 911.6 -- 43
2020-07-13 22:00:00 27.3 4 Sur 14 Oeste 0 910.5 0.2 37
2020-07-13 21:00:00 28.6 8 Oeste 15 Sudoeste 0 910.3 -0.4 33
2020-07-13 20:00:00 30.1 9 Sudoeste 18 Oeste 0 910.3 -0.9 30
2020-07-13 19:00:00 31.2 5 Oeste 20 Oeste 0 910.3 -1.5 27
2020-07-13 18:00:00 31.3 7 Sudoeste 18 Sudoeste 0 910.7 -1.5 28
2020-07-13 17:00:00 30.7 6 Sudeste 18 Sudoeste 0 911.2 -1.5 28
2020-07-13 16:00:00 30.1 8 Sur 22 Sur 0 911.8 -1 30
2020-07-13 15:00:00 29.6 8 Sudeste 22 Sudeste 0 912.2 -0.9 29
2020-07-13 14:00:00 28.5 9 Sur 24 Sur 0 912.7 -0.1 29
2020-07-13 13:00:00 27.5 10 Sudeste 22 Sudeste 0 912.8 -0.1 32
2020-07-13 12:00:00 26.3 10 Sur 26 Sur 0 913.1 0.3 36
2020-07-13 11:00:00 24.8 11 Sudeste 19 Sur 0 912.8 0.3 39
2020-07-13 10:00:00 21.7 3 Oeste 10 Nordeste 0 912.9 0.5 57
2020-07-13 09:00:00 18 4 Norte 8 Norte 0 912.8 0.7 70
2020-07-13 08:00:00 16.4 2 Nordeste 9 Norte 0 912.5 0.4 79
2020-07-13 07:00:00 16 2 Norte 6 Norte 0 912.4 -- 80
2020-07-13 06:00:00 16.2 3 Norte 6 Noroeste 0 912.1 -0.5 80
2020-07-13 05:00:00 16.1 3 Sudoeste 6 Oeste 0 912.1 -0.5 82
2020-07-13 04:00:00 16.9 3 Sudoeste 6 Este 0 912.2 -0.4 79
2020-07-13 03:00:00 17.5 5 Este 17 Nordeste 0 912.6 0.1 75
2020-07-13 02:00:00 18.1 9 Norte 16 Nordeste 0 912.6 0.5 71
2020-07-13 01:00:00 18.1 3 Este 10 Noroeste 0 912.6 1.7 74
2020-07-13 00:00:00 19.1 3 Norte 17 Sur 0 912.5 1.1 71
2020-07-12 23:00:00 19.6 11 Sudeste 30 Oeste 0.8 912.1 0.2 70
2020-07-12 22:00:00 21.4 7 Este 23 Sudeste 0 910.9 0.1 50
2020-07-12 21:00:00 21.8 6 Este 22 Este 0.4 911.4 0.7 52
2020-07-12 20:00:00 22.7 11 Nordeste 26 Nordeste 0 911.9 0 53
2020-07-12 19:00:00 23.1 9 Sudeste 30 Este 0 910.8 -0.5 58
2020-07-12 18:00:00 21.8 13 Sudeste 36 Sudeste 0 910.7 -2.4 53
2020-07-12 17:00:00 23.4 17 Sur 37 Sur 0 911.9 0.8 61
2020-07-12 16:00:00 22 7 Sudeste 27 Sudeste 0.4 911.3 0.2 61
2020-07-12 15:00:00 23.5 14 Sur 30 Sur 0.2 913.1 -- 58
2020-07-12 14:00:00 24.6 8 Este 17 Este 0 911.1 -0.4 49
2020-07-12 13:00:00 26.4 9 Sur 21 Sudeste 0 911.1 -- 38
2020-07-12 12:00:00 26.9 11 Sur 30 Sudeste 0 911.4 -- 35
2020-07-12 11:00:00 23.6 13 Sudeste 36 Sudeste 0 911.5 -- 46
2020-07-12 10:00:00 22 22 Sudeste 40 Sudeste 0 911.3 0.6 49
2020-07-12 09:00:00 21.2 14 Sudeste 33 Sudeste 0 911.5 -- 50
2020-07-12 08:00:00 19.8 14 Sudeste 35 Sudeste 0.8 910.4 -- 61
2020-07-12 07:00:00 20.1 10 Sudeste 25 Sudeste 0 910.7 -- 54
2020-07-12 06:00:00 20.8 11 Sur 31 Sur 0 910.5 -- 53
2020-07-12 05:00:00 20.5 7 Sudeste 21 Sudeste 0 910.9 -- 52
2020-07-12 04:00:00 20.7 10 Sudeste 20 Sudeste 0 911 -- 52
2020-07-12 03:00:00 21 9 Sur 21 Sur 0 910.7 -- 56
2020-07-12 02:00:00 21.6 5 Sur 13 Sur 0 910.8 -- 57
2020-07-12 01:00:00 22.1 5 Sudoeste 23 Sur 0 910.9 -- 57
2020-07-12 00:00:00 22.5 14 Sudeste 31 Sur 0 911.6 -- 56
2020-07-11 23:00:00 23.7 14 Sudeste 32 Sudeste 0 911.4 -- 48
2020-07-11 22:00:00 25.2 14 Sudeste 30 Sudeste 0 910.8 -- 51
2020-07-11 21:00:00 27.5 12 Sudeste 25 Sudeste 0 910.4 -- 41
2020-07-11 20:00:00 29.7 8 Sur 25 Sur 0 910.1 -- 35
2020-07-11 19:00:00 31.5 9 Sudeste 24 Sudoeste 0 910 -0.5 29
2020-07-11 18:00:00 32.2 8 Sur 23 Sudoeste 0 910.2 -- 26
2020-07-11 17:00:00 31.6 10 Sur 29 Sur 0 910.4 -- 28
2020-07-11 16:00:00 31.4 10 Sur 23 Sudeste 0 910.5 -- 28
2020-07-11 15:00:00 31.3 9 Sur 21 Sur 0 910.8 -- 27
2020-07-11 14:00:00 30.5 9 Sur 22 Sudeste 0 911.2 -- 25
2020-07-11 13:00:00 29.4 10 Sudeste 26 Sudeste 0 911.4 -- 28
2020-07-11 12:00:00 28.2 11 Sudeste 25 Sudeste 0 911.4 -- 30
2020-07-11 11:00:00 26.4 12 Sudeste 26 Sudeste 0 911.1 -- 31
2020-07-11 10:00:00 23.8 3 Sur 7 Sur 0 911.1 -- 39
2020-07-11 09:00:00 19.3 0 Calma 3 Norte 0 910.8 -- 51
2020-07-11 08:00:00 16.9 0 Calma 3 Oeste 0 910.7 -- 71
2020-07-11 07:00:00 17.1 0 Calma 6 Norte 0 910.4 -- 69
2020-07-11 06:00:00 17.9 0 Calma 5 Noroeste 0 910 -- 64
2020-07-11 05:00:00 18.6 0 Calma 4 Sudoeste 0 909.9 -- 67
2020-07-11 04:00:00 19.5 3 Norte 6 Norte 0 910 -- 61
2020-07-11 03:00:00 20.2 2 Noroeste 10 Oeste 0 910.2 -- 58
2020-07-11 02:00:00 20.9 3 Noroeste 14 Este 0 910.1 0.6 57
2020-07-11 01:00:00 21.6 2 Noroeste 9 Sudeste 0 910.2 -- 56
2020-07-11 00:00:00 22.6 4 Este 13 Este 0 910.1 -- 53
2020-07-10 23:00:00 24.1 5 Sudeste 21 Sudeste 0 909.5 -- 46
2020-07-10 22:00:00 25.9 8 Sudeste 19 Sudeste 0 908.8 -- 42
2020-07-10 21:00:00 28.3 3 Sudoeste 16 Oeste 0 908.3 -- 30
2020-07-10 20:00:00 29.8 6 Oeste 18 Sudoeste 0 908.1 -- 23
2020-07-10 19:00:00 31.2 9 Oeste 23 Sudoeste 0 907.8 -- 20
2020-07-10 18:00:00 30.2 6 Oeste 16 Noroeste 0 908 -- 26
2020-07-10 17:00:00 29.5 10 Sudoeste 22 Sur 0 908.1 -- 28
2020-07-10 16:00:00 31 8 Sudoeste 18 Sudoeste 0 908.3 -- 27
2020-07-10 15:00:00 29.9 6 Sudoeste 17 Oeste 0 908.9 -- 30
2020-07-10 14:00:00 28.5 7 Sur 18 Sur 0 909.3 -0.2 32
2020-07-10 13:00:00 27.8 4 Sur 14 Sur 0 909.4 -- 36
2020-07-10 12:00:00 25.8 7 Sudoeste 14 Sudeste 0 909.4 -- 42
2020-07-10 11:00:00 23.4 4 Oeste 8 Sudoeste 0 909.5 -0.3 54
2020-07-10 10:00:00 20.5 2 Noroeste 6 Nordeste 0 909.8 -- 63
2020-07-10 09:00:00 16.7 3 Norte 11 Norte 0 909.8 -- 79
2020-07-10 08:00:00 14.8 3 Sudoeste 5 Oeste 0 909.8 -- 84
2020-07-10 07:00:00 13.9 5 Sudeste 6 Sudeste 0 909.6 -- 88
2020-07-10 06:00:00 14 2 Norte 9 Norte 0 909.4 -- 87
2020-07-10 05:00:00 13.9 0 Calma 6 Norte 0 909.5 -- 86
2020-07-10 04:00:00 14.1 0 Calma 6 Oeste 0 909.7 -- 86
2020-07-10 03:00:00 14.4 2 Nordeste 4 Nordeste 0 910 -- 81
2020-07-10 02:00:00 14.7 2 Este 9 Norte 0 910.4 -- 81
2020-07-10 01:00:00 15.6 4 Noroeste 13 Norte 0 910.7 -- 78
2020-07-10 00:00:00 15.8 3 Sudeste 14 Noroeste 0 910.7 -- 75
2020-07-09 23:00:00 16.5 3 Este 11 Oeste 0 910.4 -- 72
2020-07-09 22:00:00 17.4 3 Norte 37 Nordeste 0 909.9 -- 69
2020-07-09 21:00:00 17.3 14 Este 38 Norte 2 910 -- 66
2020-07-09 20:00:00 16.1 9 Oeste 45 Noroeste 2.4 913 -- 73
2020-07-09 19:00:00 18.6 23 Oeste 53 Oeste 1 911.7 -- 65
2020-07-09 18:00:00 21.6 11 Este 29 Nordeste 3 909.8 -- 59
2020-07-09 17:00:00 26.9 6 Norte 16 Norte 0 909.6 -- 42
2020-07-09 16:00:00 26.8 4 Norte 13 Norte 0 910.2 -- 50
2020-07-09 15:00:00 26.7 4 Sur 10 Sudeste 0 911 -- 44
2020-07-09 14:00:00 26.1 4 Sur 15 Sur 0.2 911.3 -- 47
2020-07-09 13:00:00 25.8 4 Sudeste 12 Sudeste 0 911.2 -- 43
2020-07-09 12:00:00 26.7 5 Sudoeste 16 Sudeste 0 911.2 -- 43
2020-07-09 11:00:00 24.9 7 Sur 13 Sur 0 911.3 -- 49
2020-07-09 10:00:00 22.6 4 Sur 6 Sudeste 0 911.2 -- 57
2020-07-09 09:00:00 20 2 Oeste 6 Norte 0 910.8 -- 70
2020-07-09 08:00:00 18 0 Calma 11 Sur 0 910.8 -- 76
2020-07-09 07:00:00 17.4 6 Sudeste 17 Sudeste 0 910.8 -- 75
2020-07-09 06:00:00 17.5 3 Sur 11 Sur 0 910.6 -- 80
2020-07-09 05:00:00 18.1 4 Sudoeste 24 Sur 0 910 -- 78
2020-07-09 04:00:00 18.1 9 Sur 23 Sudeste 0.2 910.4 -- 73
2020-07-09 03:00:00 18.7 11 Sur 24 Sudoeste 1.2 910.4 -- 68
2020-07-09 02:00:00 19.5 4 Noroeste 12 Norte 0 909.7 -- 62
2020-07-09 01:00:00 19.9 7 Oeste 17 Sur 0 910.1 -- 64
2020-07-09 00:00:00 22.7 5 Nordeste 32 Sudeste 0.2 909.5 -- 45
2020-07-08 23:00:00 22.9 10 Este 41 Sudeste 0.8 910.2 -- 45
2020-07-08 22:00:00 22.7 19 Este 39 Nordeste 0.2 909.4 -- 44
2020-07-08 21:00:00 23.2 10 Norte 49 Sudeste 0 909.8 -- 46
2020-07-08 20:00:00 24 10 Sudeste 45 Este 0.2 909.2 -- 41
2020-07-08 19:00:00 24.6 23 Sudeste 46 Sudeste 0 910.5 -- 44
2020-07-08 18:00:00 26.8 13 Sudeste 32 Sudeste 0 909.5 -- 29
2020-07-08 17:00:00 27.1 14 Sudeste 53 Sudeste 0 908.9 -- 26
2020-07-08 16:00:00 32.5 13 Sudoeste 30 Sudeste 0 910.2 -- 23
2020-07-08 15:00:00 34.7 10 Sudeste 26 Sudeste 0 909.2 -- 18
2020-07-08 14:00:00 34.3 8 Sur 19 Sur 0 909.5 -- 18
2020-07-08 13:00:00 32.1 9 Este 21 Sur 0 909.8 -- 24
2020-07-08 12:00:00 28.4 10 Sudeste 20 Sudeste 0 910.5 -- 40
2020-07-08 11:00:00 26.1 5 Norte 17 Nordeste 0 911.1 -- 46
2020-07-08 10:00:00 24.3 10 Noroeste 29 Noroeste 0 911.3 -- 50
2020-07-08 09:00:00 23.3 8 Oeste 14 Sudeste 0 909.6 -- 51
2020-07-08 08:00:00 21.8 4 Oeste 13 Nordeste 0 910.7 -- 60
2020-07-08 07:00:00 20.4 3 Sur 8 Sudoeste 0 910.6 -- 67
2020-07-08 06:00:00 20.9 2 Nordeste 6 Oeste 0 909.5 -- 65
2020-07-08 05:00:00 21.6 3 Oeste 7 Sudoeste 0 909.3 -- 63
2020-07-08 04:00:00 22.2 2 Oeste 9 Oeste 0 909.7 -- 62
2020-07-08 03:00:00 22.8 3 Sudoeste 9 Este 0 910.1 -- 59
2020-07-08 02:00:00 23.6 6 Sudeste 21 Sudeste 0 910.4 -- 58
2020-07-08 01:00:00 24.6 13 Sudeste 22 Sudeste 0 910.5 -- 56
2020-07-08 00:00:00 26.3 9 Sudeste 18 Sur 0 910 -- 28
2020-07-07 23:00:00 28.6 0 Calma 8 Norte 0 909.4 -- 24
2020-07-07 22:00:00 31 0 Calma 10 Noroeste 0 908.9 -- 20
2020-07-07 21:00:00 33.3 6 Noroeste 18 Noroeste 0 908.8 -- 17
2020-07-07 20:00:00 35 8 Noroeste 22 Noroeste 0 908.7 -0.5 14
2020-07-07 19:00:00 36.1 8 Noroeste 24 Oeste 0 908.6 -0.8 15
2020-07-07 18:00:00 36.3 12 Noroeste 24 Noroeste 0 908.9 -0.9 16
2020-07-07 17:00:00 36.3 9 Noroeste 27 Noroeste 0 909.2 -0.8 18
2020-07-07 16:00:00 35.6 6 Noroeste 30 Noroeste 0 909.4 -0.9 20
2020-07-07 15:00:00 34.5 8 Noroeste 27 Oeste 0 909.8 -0.9 21
2020-07-07 14:00:00 33.9 10 Noroeste 24 Noroeste 0 910 -0.6 23
2020-07-07 13:00:00 32.5 8 Oeste 23 Noroeste 0 910.3 -0.5 27
2020-07-07 12:00:00 30.5 5 Oeste 13 Noroeste 0 910.7 0 31
2020-07-07 11:00:00 28.8 4 Sudoeste 9 Sudoeste 0 910.6 0.2 37
2020-07-07 10:00:00 26.2 3 Nordeste 8 Nordeste 0 910.8 0.4 42
2020-07-07 09:00:00 21.8 5 Norte 15 Norte 0 910.7 0.4 53
2020-07-07 08:00:00 19.8 4 Nordeste 7 Nordeste 0 910.4 0 57
2020-07-07 07:00:00 20 4 Norte 6 Norte 0 910.4 -- 55
2020-07-07 06:00:00 20.9 2 Nordeste 5 Norte 0 910.3 -- 53
2020-07-07 05:00:00 21.7 3 Norte 6 Norte 0 910.4 -- 51
2020-07-07 04:00:00 22.5 2 Noroeste 7 Oeste 0 910.5 -- 50
2020-07-07 03:00:00 23.6 3 Nordeste 8 Este 0 910.7 -- 45
2020-07-07 02:00:00 24.3 3 Sudeste 9 Sudeste 0 910.9 -- 45
2020-07-07 01:00:00 25.4 2 Nordeste 10 Sudeste 0 911.1 -- 43
2020-07-07 00:00:00 26.7 4 Sudeste 14 Sudeste 0 910.9 -- 40
2020-07-06 23:00:00 28.6 6 Este 23 Nordeste 0 910.6 -- 37
2020-07-06 22:00:00 30.3 6 Norte 18 Noroeste 0 909.9 -- 28
2020-07-06 21:00:00 32.2 6 Noroeste 19 Noroeste 0 909.5 -- 23
2020-07-06 20:00:00 33.4 10 Noroeste 23 Noroeste 0 909.5 -- 20
2020-07-06 19:00:00 35 8 Oeste 27 Norte 0 909.6 -- 18
2020-07-06 18:00:00 35.2 6 Noroeste 27 Oeste 0 909.9 -- 20
2020-07-06 17:00:00 35 12 Noroeste 28 Oeste 0 910.1 -- 20
2020-07-06 16:00:00 35 10 Oeste 28 Noroeste 0 910.3 -- 17
2020-07-06 15:00:00 34.4 9 Noroeste 34 Noroeste 0 910.8 -- 18
2020-07-06 14:00:00 33.7 10 Oeste 26 Noroeste 0 911.2 -- 21
2020-07-06 13:00:00 32.3 8 Oeste 15 Sudoeste 0 911.5 -- 26
2020-07-06 12:00:00 30.4 5 Sudoeste 10 Norte 0 911.6 -- 31
2020-07-06 11:00:00 28.4 5 Norte 14 Norte 0 911.9 -- 33
2020-07-06 10:00:00 24.8 3 Norte 13 Norte 0 912.1 -- 42
2020-07-06 09:00:00 20.3 2 Sudeste 9 Norte 0 912 -- 57
2020-07-06 08:00:00 18.2 0 Calma 5 Nordeste 0 911.8 -- 62
2020-07-06 07:00:00 18.2 0 Calma 6 Oeste 0 911.5 -- 62
2020-07-06 06:00:00 19.1 0 Calma 5 Sur 0 911.5 -- 59
2020-07-06 05:00:00 20 0 Calma 4 Sudoeste 0 911.7 -- 57
2020-07-06 04:00:00 20.9 2 Sudoeste 5 Sudoeste 0 912.1 -- 53
2020-07-06 03:00:00 22 2 Noroeste 5 Noroeste 0 912.3 -- 50
2020-07-06 02:00:00 23.1 0 Calma 11 Este 0 912.5 -- 46
2020-07-06 01:00:00 23.8 5 Sur 13 Sur 0 912.9 -- 46
2020-07-06 00:00:00 24.7 6 Noroeste 13 Este 0 912.5 -- 28
2020-07-05 23:00:00 26.9 2 Noroeste 7 Norte 0 912 -- 26
2020-07-05 22:00:00 29.3 3 Norte 10 Noroeste 0 911.6 -- 22
2020-07-05 21:00:00 31.3 5 Noroeste 19 Noroeste 0 911.6 -- 18
2020-07-05 20:00:00 33 9 Noroeste 21 Noroeste 0 911.5 -- 15
2020-07-05 19:00:00 34.4 8 Noroeste 24 Norte 0 911.5 -- 15
2020-07-05 18:00:00 34.8 10 Noroeste 23 Noroeste 0 911.8 -- 15
2020-07-05 17:00:00 34.7 6 Noroeste 21 Sudoeste 0 912.3 -- 18
2020-07-05 16:00:00 34.2 8 Noroeste 21 Oeste 0 912.6 -- 19
2020-07-05 15:00:00 33.4 8 Oeste 22 Noroeste 0 913.1 -- 21
2020-07-05 14:00:00 32.9 5 Noroeste 15 Norte 0 913.8 -- 17
2020-07-05 13:00:00 31.4 5 Oeste 10 Oeste 0 914.1 -- 25
2020-07-05 12:00:00 29 5 Sudeste 14 Sudoeste 0 914.4 -- 35
2020-07-05 11:00:00 27.1 7 Sur 18 Sudoeste 0 914.6 -- 43
2020-07-05 10:00:00 23.8 3 Noroeste 6 Sudoeste 0 914.8 -- 37
2020-07-05 09:00:00 19 2 Nordeste 5 Nordeste 0 914.8 -- 45
2020-07-05 08:00:00 16.7 0 Calma 7 Nordeste 0 914.7 -- 52
2020-07-05 07:00:00 16.9 0 Calma 5 Oeste 0 914.6 -- 48
2020-07-05 06:00:00 17.4 3 Sudoeste 5 Oeste 0 914.6 -- 45
2020-07-05 05:00:00 18.1 2 Norte 7 Norte 0 914.7 -- 41
2020-07-05 04:00:00 19 0 Calma 6 Sudeste 0 914.9 -- 37
2020-07-05 03:00:00 20.1 2 Oeste 9 Este 0 915.1 -- 36
2020-07-05 02:00:00 21.4 4 Sur 13 Sur 0 915.3 -- 41
2020-07-05 01:00:00 22.2 3 Sudoeste 8 Oeste 0 915.4 -- 47
2020-07-05 00:00:00 23.5 4 Norte 14 Nordeste 0 915.1 -- 26
2020-07-04 23:00:00 25.6 5 Nordeste 12 Nordeste 0 914.4 -- 21
2020-07-04 22:00:00 27.7 3 Norte 12 Noroeste 0 913.6 -- 18
2020-07-04 21:00:00 29.6 6 Noroeste 14 Noroeste 0 913.4 -- 16
2020-07-04 20:00:00 31.1 8 Noroeste 22 Noroeste 0 913.2 -- 14
2020-07-04 19:00:00 32.5 7 Noroeste 20 Noroeste 0 913 -- 14
2020-07-04 18:00:00 32.7 11 Oeste 28 Noroeste 0 913.3 -- 14
2020-07-04 17:00:00 32.5 13 Oeste 23 Noroeste 0 913.5 -- 14
2020-07-04 16:00:00 31.9 8 Oeste 24 Noroeste 0 913.8 -- 18
2020-07-04 15:00:00 31.4 4 Noroeste 23 Noroeste 0 914.2 -- 20
2020-07-04 14:00:00 30.5 7 Noroeste 20 Noroeste 0 914.7 -- 23
2020-07-04 13:00:00 28.7 7 Noroeste 18 Oeste 0 915 -- 26
2020-07-04 12:00:00 26.7 6 Oeste 14 Sudoeste 0 915.1 -- 40
2020-07-04 11:00:00 24.4 6 Sudoeste 11 Oeste 0 915 -- 56
2020-07-04 10:00:00 22.5 4 Oeste 7 Sudoeste 0 915 -- 66
2020-07-04 09:00:00 19.1 3 Norte 10 Norte 0 914.8 -- 80
2020-07-04 08:00:00 16.8 6 Norte 14 Nordeste 0 914.5 -- 85
2020-07-04 07:00:00 17.2 0 Calma 7 Sudoeste 0 914.3 -- 82
2020-07-04 06:00:00 17.8 3 Norte 5 Norte 0 914.1 -- 83
2020-07-04 05:00:00 18.4 3 Noroeste 7 Sudoeste 0 914 -- 80
2020-07-04 04:00:00 19.2 0 Calma 10 Este 0 914 -- 79
2020-07-04 03:00:00 20 3 Oeste 12 Sudeste 0 914 -- 76
2020-07-04 02:00:00 20.5 7 Sudeste 24 Sudeste 0 913.9 -- 74
2020-07-04 01:00:00 21 13 Sudeste 26 Sudeste 0 913.6 -- 73
2020-07-04 00:00:00 22.3 8 Sudeste 22 Sudeste 0 913.6 -- 59
2020-07-03 23:00:00 23.8 6 Norte 9 Nordeste 0 912.7 -- 31
2020-07-03 22:00:00 26.6 3 Noroeste 13 Noroeste 0 912.1 -- 25
2020-07-03 21:00:00 28.3 6 Noroeste 19 Noroeste 0 911.7 -- 22
2020-07-03 20:00:00 29.9 6 Noroeste 19 Norte 0 911.2 -- 21
2020-07-03 19:00:00 30.5 8 Noroeste 21 Noroeste 0 910.8 -- 22
2020-07-03 18:00:00 31 7 Noroeste 23 Oeste 0 910.8 -- 22
2020-07-03 17:00:00 30.9 8 Sudoeste 21 Oeste 0 911.1 -- 23
2020-07-03 16:00:00 30 6 Sudeste 19 Sudoeste 0 911.4 -- 25
2020-07-03 15:00:00 29.5 10 Oeste 22 Oeste 0 911.5 -- 26
2020-07-03 14:00:00 27.9 7 Oeste 21 Sudoeste 0 911.9 -- 28
2020-07-03 13:00:00 26.2 4 Norte 14 Norte 0 912.1 -- 35
2020-07-03 12:00:00 25.7 9 Sur 19 Sudoeste 0 911.9 -- 42
2020-07-03 11:00:00 23.9 7 Sudeste 17 Sur 0 911.9 -- 48
2020-07-03 10:00:00 22.2 8 Sudeste 16 Sudeste 0 911.7 -- 57
2020-07-03 09:00:00 18.7 3 Oeste 7 Oeste 0 911.6 -- 62
2020-07-03 08:00:00 16.2 0 Calma 5 Oeste 0 911.3 -- 60
2020-07-03 07:00:00 16.3 0 Calma 12 Noroeste 0 910.9 -- 55
2020-07-03 06:00:00 16.7 0 Calma 8 Norte 0 910.8 -- 52
2020-07-03 05:00:00 17.1 4 Sudoeste 6 Oeste 0 910.4 -- 46
2020-07-03 04:00:00 18.2 0 Calma 8 Norte 0 909.9 -- 43
2020-07-03 03:00:00 19.4 2 Oeste 6 Noroeste 0 910 -- 38
2020-07-03 02:00:00 20.7 3 Norte 10 Oeste 0 910 -- 36
2020-07-03 01:00:00 22.4 0 Calma 5 Noroeste 0 910 -- 32
2020-07-03 00:00:00 24 3 Noroeste 14 Oeste 0 909.7 -- 28
2020-07-02 23:00:00 25.1 3 Noroeste 8 Noroeste 0 909.4 -- 23
2020-07-02 22:00:00 26.7 3 Noroeste 14 Noroeste 0 908.9 -- 21
2020-07-02 21:00:00 28.2 9 Noroeste 26 Oeste 0 908.6 -- 19
2020-07-02 20:00:00 29.7 10 Noroeste 27 Oeste 0 908.2 -- 19
2020-07-02 19:00:00 31.5 10 Oeste 34 Oeste 0 908.1 -- 18
2020-07-02 18:00:00 31.6 9 Oeste 33 Noroeste 0 908.2 -- 19
2020-07-02 17:00:00 32.4 9 Noroeste 32 Noroeste 0 908.1 -- 17
2020-07-02 16:00:00 32.2 9 Oeste 35 Noroeste 0 908.6 -- 17
2020-07-02 15:00:00 31 12 Oeste 31 Oeste 0 908.9 -- 18
2020-07-02 14:00:00 30.6 12 Oeste 32 Noroeste 0 909.3 -- 19
2020-07-02 13:00:00 30.1 10 Oeste 33 Oeste 0 909.3 -- 20
2020-07-02 12:00:00 29 12 Oeste 31 Oeste 0 909.4 -- 27
2020-07-02 11:00:00 26.9 3 Oeste 11 Sudoeste 0 909.3 -- 29
2020-07-02 10:00:00 23.8 4 Sur 7 Sudeste 0 909.2 -- 33
2020-07-02 09:00:00 18.9 2 Sudoeste 6 Oeste 0 908.8 -- 44
2020-07-02 08:00:00 16.3 2 Norte 6 Oeste 0 908.5 -- 49
2020-07-02 07:00:00 16.6 0 Calma 4 Oeste 0 908.4 -- 46
2020-07-02 06:00:00 17.2 2 Sudoeste 9 Oeste 0 908 -- 43
2020-07-02 05:00:00 18.1 2 Noroeste 12 Sudoeste 0 907.9 -- 42
2020-07-02 04:00:00 19.1 5 Norte 9 Norte 0 908 -- 39
2020-07-02 03:00:00 19.9 4 Oeste 8 Oeste 0 908.1 -- 36
2020-07-02 02:00:00 21.3 3 Sudoeste 7 Nordeste 0 908.4 -- 33
2020-07-02 01:00:00 23 2 Norte 8 Sur 0 908.6 -- 31
2020-07-02 00:00:00 25.1 0 Calma 7 Este 0 908.3 -- 26
2020-07-01 23:00:00 27.1 3 Noroeste 10 Noroeste 0 908.1 -- 23
2020-07-01 22:00:00 28.8 6 Noroeste 19 Oeste 0 907.4 -- 20
2020-07-01 21:00:00 30.4 9 Noroeste 27 Oeste 0 907.1 -- 18
2020-07-01 20:00:00 32.1 12 Oeste 39 Oeste 0 906.7 -- 18
2020-07-01 19:00:00 33.6 12 Oeste 33 Oeste 0 906.8 -- 17
2020-07-01 18:00:00 33.8 14 Oeste 30 Oeste 0 907.1 -- 17
2020-07-01 17:00:00 34 11 Oeste 32 Oeste 0 907.3 -- 16
2020-07-01 16:00:00 33.6 11 Oeste 29 Oeste 0 907.4 -- 16
2020-07-01 15:00:00 32.9 10 Sudoeste 25 Oeste 0 907.6 -- 21
2020-07-01 14:00:00 31.5 11 Oeste 28 Oeste 0 907.8 -- 22
2020-07-01 13:00:00 30.1 11 Oeste 30 Oeste 0 908.2 -- 24
2020-07-01 12:00:00 29.1 12 Oeste 22 Oeste 0 908.2 -- 28
2020-07-01 11:00:00 26.9 3 Sudeste 11 Este 0 908.2 -- 37
2020-07-01 10:00:00 24.6 5 Sur 10 Sur 0 908.3 -- 44
2020-07-01 09:00:00 20.8 4 Sur 8 Sur 0 908 -- 62
2020-07-01 08:00:00 18.3 0 Calma 8 Oeste 0 907.6 -- 70
2020-07-01 07:00:00 18.4 3 Oeste 6 Noroeste 0 907.2 -- 69
2020-07-01 06:00:00 19.4 2 Norte 8 Sudeste 0 906.7 -- 65
2020-07-01 05:00:00 20.5 2 Sudeste 8 Sur 0 906.6 -- 61
2020-07-01 04:00:00 21.7 3 Sur 15 Sudeste 0 906.6 -- 55
2020-07-01 03:00:00 22.6 6 Sudeste 14 Sudeste 0 906.7 -- 52
2020-07-01 02:00:00 23.2 6 Sur 18 Sur 0 907 -- 53
2020-07-01 01:00:00 24.5 8 Sudeste 28 Sudeste 0 907 -- 49
2020-07-01 00:00:00 25.6 12 Sudeste 30 Este 0 906.7 -- 46
2020-06-30 23:00:00 26.8 7 Sur 24 Sudeste 0 906.7 -- 44
2020-06-30 22:00:00 28.4 12 Sudeste 28 Sudeste 0 905.9 -- 41
2020-06-30 21:00:00 30.9 14 Sudeste 31 Sudeste 0 905.3 -- 34
2020-06-30 20:00:00 32.9 10 Sur 27 Sudoeste 0 905.2 -- 20
2020-06-30 19:00:00 34.5 10 Sudoeste 27 Sur 0 905.4 -- 18
2020-06-30 18:00:00 35.2 8 Sudoeste 24 Sudeste 0 906 -- 17
2020-06-30 17:00:00 34.6 14 Sur 33 Sur 0 906.5 -- 18
2020-06-30 16:00:00 33.9 10 Sur 28 Sudoeste 0 906.9 -- 23
2020-06-30 15:00:00 33.4 14 Sur 30 Sur 0 907.5 -- 23
2020-06-30 14:00:00 33.3 13 Sudoeste 25 Sudoeste 0 907.7 -- 24
2020-06-30 13:00:00 31.4 9 Sudeste 26 Sudeste 0 907.9 -- 29
2020-06-30 12:00:00 29.5 8 Sur 22 Sudeste 0 908.2 -- 33
2020-06-30 11:00:00 27.7 9 Sudeste 19 Sudeste 0 908.4 -- 34
2020-06-30 10:00:00 25.8 8 Sudeste 20 Sudeste 0 908.7 -- 35
2020-06-30 09:00:00 22.8 6 Sur 13 Sur 0 908.6 -- 43
2020-06-30 08:00:00 19.9 3 Noroeste 6 Oeste 0 908.6 -- 51
2020-06-30 07:00:00 20.3 4 Sudeste 13 Sur 0 908.4 -- 48
2020-06-30 06:00:00 20.8 3 Sudoeste 8 Oeste 0 908.1 -- 50
2020-06-30 05:00:00 21.9 3 Sur 19 Sur 0 908.1 -- 46
2020-06-30 04:00:00 22.3 8 Sudeste 15 Sudeste 0 908.4 -- 45
2020-06-30 03:00:00 22.9 4 Sur 14 Sudeste 0 908.9 -- 47
2020-06-30 02:00:00 23.6 5 Sur 12 Sudeste 0 909.2 -- 48
2020-06-30 01:00:00 25 7 Sur 23 Sudeste 0 909.4 -- 44
2020-06-30 00:00:00 26 12 Sudeste 28 Sudeste 0 909.3 -- 43
2020-06-29 23:00:00 27.2 13 Sudeste 29 Sur 0 908.9 -- 44
2020-06-29 22:00:00 29.9 0 Calma 10 Noroeste 0 908 -- 27
2020-06-29 21:00:00 31.8 4 Oeste 14 Sur 0 907.9 -- 23
2020-06-29 20:00:00 33.2 5 Sudoeste 17 Oeste 0 908 -- 19
2020-06-29 19:00:00 34.6 10 Oeste 24 Oeste 0 908.3 -- 18
2020-06-29 18:00:00 34.9 10 Oeste 24 Noroeste 0 908.6 -- 18
2020-06-29 17:00:00 34.9 13 Oeste 29 Oeste 0 909 -- 19
2020-06-29 16:00:00 34.5 10 Sudoeste 24 Oeste 0 909.5 -- 21
2020-06-29 15:00:00 33.6 9 Oeste 28 Noroeste 0 910 -- 23
2020-06-29 14:00:00 32.8 8 Sur 26 Noroeste 0 910.3 -- 25
2020-06-29 13:00:00 32.2 8 Oeste 20 Oeste 0 910.8 -- 26
2020-06-29 12:00:00 30.8 8 Oeste 21 Oeste 0 911.1 -- 28
2020-06-29 11:00:00 28.4 5 Sur 12 Sudoeste 0 911 -- 37
2020-06-29 10:00:00 24.6 5 Sur 9 Sudeste 0 911.1 -- 49
2020-06-29 09:00:00 20.3 2 Oeste 6 Oeste 0 911.1 -- 66
2020-06-29 08:00:00 18.1 0 Calma 4 Sudoeste 0 911.1 -- 74
2020-06-29 07:00:00 18.1 3 Sudoeste 6 Oeste 0 910.7 -- 72
2020-06-29 06:00:00 19 3 Oeste 5 Oeste 0 910.5 -- 69
2020-06-29 05:00:00 19.9 3 Noroeste 7 Noroeste 0 910.6 -- 67
2020-06-29 04:00:00 20.7 2 Sur 5 Sudoeste 0 910.6 -- 64
2020-06-29 03:00:00 21.5 2 Noroeste 6 Sudoeste 0 911 -- 59
2020-06-29 02:00:00 22.1 4 Oeste 13 Sudeste 0 911.1 -- 53
2020-06-29 01:00:00 23 4 Sur 13 Sur 0 911.2 -- 49
2020-06-29 00:00:00 24.3 0 Calma 8 Nordeste 0 910.8 -- 35
2020-06-28 23:00:00 26.4 4 Norte 8 Norte 0 910.5 -- 31
2020-06-28 22:00:00 28.5 2 Noroeste 12 Noroeste 0 910.1 -- 27
2020-06-28 21:00:00 30 6 Noroeste 18 Noroeste 0 910.1 -- 24
2020-06-28 20:00:00 31.3 12 Oeste 23 Sudoeste 0 909.9 -- 22
2020-06-28 19:00:00 33.1 6 Noroeste 23 Noroeste 0 910 -- 21
2020-06-28 18:00:00 32.7 6 Sudoeste 25 Oeste 0 910.1 -- 22
2020-06-28 17:00:00 32.5 11 Sudoeste 23 Sudoeste 0 910.4 -- 23
2020-06-28 16:00:00 32.1 9 Sur 22 Sudoeste 0 910.7 -1 24
2020-06-28 15:00:00 31.8 8 Oeste 32 Sudoeste 0 910.9 -- 25
2020-06-28 14:00:00 31.2 7 Oeste 31 Oeste 0 911.3 -- 27
2020-06-28 13:00:00 30.1 10 Oeste 23 Oeste 0 911.7 -- 29
2020-06-28 12:00:00 29 7 Sudoeste 19 Sur 0 911.9 -- 32
2020-06-28 11:00:00 26.8 5 Sur 11 Sur 0 911.9 -- 37
2020-06-28 10:00:00 23.8 2 Sur 8 Sudoeste 0 911.9 -- 46
2020-06-28 09:00:00 19.3 0 Calma 4 Norte 0 911.6 -- 60
2020-06-28 08:00:00 17.1 2 Norte 5 Nordeste 0 911.5 -- 64
2020-06-28 07:00:00 17.2 0 Calma 8 Oeste 0 911.2 -- 63
2020-06-28 06:00:00 17.7 4 Oeste 8 Oeste 0 911 -- 60
2020-06-28 05:00:00 18.5 3 Oeste 6 Oeste 0 910.8 -- 56
2020-06-28 04:00:00 19.2 2 Noroeste 8 Sur 0 910.9 -- 52
2020-06-28 03:00:00 19.4 4 Sudeste 11 Sudeste 0 911.1 -- 47
2020-06-28 02:00:00 20.1 2 Oeste 5 Nordeste 0 910.8 -- 44
2020-06-28 01:00:00 21.7 2 Noroeste 5 Oeste 0 910.7 -- 41
2020-06-28 00:00:00 23.5 3 Sudoeste 6 Norte 0 910.6 -- 37
2020-06-27 23:00:00 25.3 3 Noroeste 8 Norte 0 910.3 -- 33
2020-06-27 22:00:00 26.8 3 Noroeste 14 Oeste 0 909.7 -- 30
2020-06-27 21:00:00 28.1 8 Oeste 19 Noroeste 0 909.5 -- 27
2020-06-27 20:00:00 29.5 10 Oeste 22 Oeste 0 909.3 -- 25
2020-06-27 19:00:00 31.1 8 Oeste 22 Oeste 0 909.1 -- 23
2020-06-27 18:00:00 31.3 5 Noroeste 18 Noroeste 0 909.2 -- 24
2020-06-27 17:00:00 31.1 9 Sudoeste 25 Oeste 0 909.3 -- 24
2020-06-27 16:00:00 30.8 7 Oeste 27 Oeste 0 909.6 -- 23
2020-06-27 15:00:00 29.5 8 Oeste 23 Noroeste 0 909.7 -- 24
2020-06-27 14:00:00 28.1 8 Norte 19 Oeste 0 909.8 -- 25
2020-06-27 13:00:00 27.2 7 Sudoeste 18 Oeste 0 910.2 -- 26
2020-06-27 12:00:00 25.8 6 Oeste 11 Sudoeste 0 910.4 -- 27
2020-06-27 11:00:00 23.3 2 Sur 8 Noroeste 0 910.3 -- 32
2020-06-27 10:00:00 20.2 3 Oeste 6 Oeste 0 910.2 -- 39
2020-06-27 09:00:00 17.5 4 Oeste 6 Sudoeste 0 910 -- 45
2020-06-27 08:00:00 14.9 2 Sudoeste 6 Oeste 0 909.9 -- 51
2020-06-27 07:00:00 14.6 4 Norte 6 Nordeste 0 909.5 -- 51
2020-06-27 06:00:00 15.5 3 Norte 7 Norte 0 909.3 -- 49
2020-06-27 05:00:00 16.9 2 Sudoeste 9 Norte 0 909 -- 47
2020-06-27 04:00:00 18.6 3 Norte 5 Norte 0 908.8 -- 42
2020-06-27 03:00:00 20.4 0 Calma 5 Norte 0 908.9 -- 38
2020-06-27 02:00:00 21.4 3 Sur 5 Oeste 0 909 -- 36
2020-06-27 01:00:00 22.5 2 Noroeste 5 Noroeste 0 908.8 -- 34
2020-06-27 00:00:00 23.4 2 Norte 9 Norte 0 908.8 -- 31
2020-06-26 23:00:00 24.5 4 Noroeste 14 Noroeste 0 908.2 -- 29
2020-06-26 22:00:00 25.8 7 Noroeste 22 Noroeste 0 907.2 -- 27
2020-06-26 21:00:00 27.6 9 Oeste 25 Oeste 0 906.6 -- 24
2020-06-26 20:00:00 28.7 12 Oeste 31 Oeste 0 906.2 -- 23
2020-06-26 19:00:00 30.4 14 Sudoeste 30 Sudoeste 0 906.1 -- 24
2020-06-26 18:00:00 30.4 13 Sudoeste 26 Oeste 0 906.5 -- 25
2020-06-26 17:00:00 29.4 12 Sudoeste 32 Sudoeste 0 907 -- 28
2020-06-26 16:00:00 30.4 13 Sudoeste 28 Sudoeste 0 907.5 -- 28
2020-06-26 15:00:00 29.9 10 Sur 24 Sudoeste 0 907.9 -- 30
2020-06-26 14:00:00 28.7 6 Sur 21 Sur 0 908.2 -- 33
2020-06-26 13:00:00 27.7 6 Sur 15 Sudoeste 0 908.7 -- 35
2020-06-26 12:00:00 26.3 7 Sudeste 17 Sur 0 909 -- 38
2020-06-26 11:00:00 24.1 9 Sur 23 Sudeste 0 909.2 -- 40
2020-06-26 10:00:00 22.1 10 Sudeste 19 Sudeste 0 909.3 -- 44
2020-06-26 09:00:00 20.6 9 Sur 23 Sudeste 0 909.2 -- 43
2020-06-26 08:00:00 19.9 11 Sudeste 19 Sudeste 0 909 -- 45
2020-06-26 07:00:00 19.6 9 Sudeste 28 Sudeste 0 908.8 -- 45
2020-06-26 06:00:00 20.1 14 Sudeste 30 Sudeste 0 908.6 -- 43
2020-06-26 05:00:00 19.6 11 Sur 28 Sudeste 0 908.7 -- 44
2020-06-26 04:00:00 20 17 Sudeste 38 Sudeste 0 908.9 -- 44
2020-06-26 03:00:00 19.6 12 Sur 31 Sudeste 0 909.3 -- 42
2020-06-26 02:00:00 20.4 13 Sudeste 38 Sudeste 0 909.6 -- 41
2020-06-26 01:00:00 21.2 15 Sur 35 Sudeste 0 909.2 -- 41
2020-06-26 00:00:00 22.8 18 Sudeste 43 Sudeste 0 908.8 -- 42
2020-06-25 23:00:00 24.3 22 Sudeste 41 Sudeste 0 908.4 -- 39
2020-06-25 22:00:00 25.9 15 Sudeste 27 Sudeste 0 908 -- 38
2020-06-25 21:00:00 28.3 16 Sudeste 31 Sudeste 0 907.6 -- 34
2020-06-25 20:00:00 30.5 15 Sur 33 Sudoeste 0 907 -- 26
2020-06-25 19:00:00 31.2 14 Sur 35 Sur 0 907 -- 21
2020-06-25 18:00:00 32 15 Sur 35 Sur 0 907.5 -- 22
2020-06-25 17:00:00 32.3 16 Sur 33 Sur 0 907.9 -- 20
2020-06-25 16:00:00 32.3 12 Sur 33 Sudoeste 0 908.6 -- 22
2020-06-25 15:00:00 32 12 Sudoeste 29 Sudoeste 0 909 -- 22
2020-06-25 14:00:00 31.4 11 Sur 26 Sudoeste 0 909.2 -- 23
2020-06-25 13:00:00 30.1 9 Sur 23 Sudoeste 0 909.7 -- 28
2020-06-25 12:00:00 28 10 Sudeste 27 Sudeste 0 910.1 -- 31
2020-06-25 11:00:00 26.1 10 Sudeste 22 Sudeste 0 910.2 -- 36
2020-06-25 10:00:00 24.6 9 Sudeste 19 Sur 0 910.3 -- 39
2020-06-25 09:00:00 19.7 3 Noroeste 5 Oeste 0 910.2 -- 57
2020-06-25 08:00:00 17.5 0 Calma 6 Oeste 0 910 -- 64
2020-06-25 07:00:00 17.9 2 Este 9 Este 0 910 -- 59
2020-06-25 06:00:00 18.3 3 Este 8 Sudeste 0 910.3 -- 59
2020-06-25 05:00:00 18.8 5 Sudeste 13 Sudoeste 0 910.5 -- 59
2020-06-25 04:00:00 20.1 8 Sur 22 Sudeste 0 910.8 -- 56
2020-06-25 03:00:00 19.7 12 Sudeste 31 Este 0 911 -- 60
2020-06-25 02:00:00 20.6 14 Sudeste 25 Sur 0 911.3 -- 56
2020-06-25 01:00:00 21.6 7 Sudeste 15 Sur 0 911.2 -- 48
2020-06-25 00:00:00 22.8 5 Oeste 8 Oeste 0 911 -- 44
2020-06-24 23:00:00 24.2 4 Sudeste 12 Sudeste 0 911 -- 40
2020-06-24 22:00:00 25.2 6 Sudeste 25 Sudeste 0 910.5 -- 36
2020-06-24 21:00:00 27.3 14 Sudeste 31 Este 0 910.1 -- 31
2020-06-24 20:00:00 29.5 10 Sudeste 22 Sudeste 0 909.9 -- 25
2020-06-24 19:00:00 30.3 8 Sudeste 17 Este 0 909.9 -- 22
2020-06-24 18:00:00 30.3 7 Este 19 Este 0 910 -- 25
2020-06-24 17:00:00 30.4 9 Este 19 Este 0 909.9 -- 24
2020-06-24 16:00:00 29 8 Norte 27 Nordeste 0 911.3 -- 28
2020-06-24 15:00:00 27.2 10 Norte 30 Norte 0 912.4 -- 34
2020-06-24 14:00:00 28 5 Norte 15 Norte 0 911.9 -- 32
2020-06-24 13:00:00 26.9 3 Sudeste 14 Sudeste 0 912 -- 33
2020-06-24 12:00:00 26.6 5 Sudeste 15 Sudoeste 0 911.3 -- 35
2020-06-24 11:00:00 26.2 9 Sudoeste 21 Sur 0 910.8 -- 39
2020-06-24 10:00:00 25.3 6 Sudoeste 19 Sudoeste 0 910.3 -- 43
2020-06-24 09:00:00 21.5 3 Sudeste 8 Oeste 0 910.1 -- 54
2020-06-24 08:00:00 20.5 0 Calma 24 Sudeste 0 910 -- 54
2020-06-24 07:00:00 20.1 15 Sur 28 Sudeste 0 909.7 -- 55
2020-06-24 06:00:00 19.2 10 Sur 24 Oeste 0 911.5 -- 69
2020-06-24 05:00:00 19.7 5 Nordeste 33 Noroeste 0 911.8 -- 60
2020-06-24 04:00:00 20.5 5 Sur 17 Sur 0 910.9 -- 56
2020-06-24 03:00:00 21 9 Sudeste 21 Sudeste 0 910.8 -- 57
2020-06-24 02:00:00 21.6 5 Sudeste 16 Sudeste 0 911 -- 57
2020-06-24 01:00:00 22.8 8 Sudeste 26 Sudeste 0 911.2 -- 54
2020-06-24 00:00:00 23.9 13 Sudeste 27 Sudeste 0 911.1 -- 52
2020-06-23 23:00:00 25.5 15 Sudeste 31 Sudeste 0 910.8 -- 50
2020-06-23 22:00:00 28.2 6 Sudeste 19 Sur 0 909.7 -- 28
2020-06-23 21:00:00 30.5 7 Sudoeste 15 Sudoeste 0 909.1 -- 22
2020-06-23 20:00:00 31.9 9 Sudoeste 19 Sur 0 908.8 -- 21
2020-06-23 19:00:00 33.6 8 Sur 19 Oeste 0 908.9 -- 19
2020-06-23 18:00:00 33.8 9 Oeste 15 Oeste 0 909.3 -- 19
2020-06-23 17:00:00 33.9 7 Sudoeste 23 Sudoeste 0 909.7 -- 19
2020-06-23 16:00:00 33 6 Sur 19 Sur 0 910.1 -- 21
2020-06-23 15:00:00 32.1 10 Sudoeste 23 Sudoeste 0 910.6 -- 23
2020-06-23 14:00:00 30.5 8 Sudeste 27 Sudeste 0 911.1 -- 28
2020-06-23 13:00:00 28.8 10 Sudeste 24 Sudeste 0 911.7 -- 31
2020-06-23 12:00:00 27.1 12 Sur 28 Sudeste 0 911.9 -- 33
2020-06-23 11:00:00 25.2 11 Sudeste 28 Sudeste 0 912.1 -- 37
2020-06-23 10:00:00 23.6 10 Sur 30 Sudeste 0 912.4 -- 39
2020-06-23 09:00:00 20.9 10 Sur 19 Sudeste 0 912.6 -- 49
2020-06-23 08:00:00 17.9 0 Calma 6 Noroeste 0 912.4 -- 65
2020-06-23 07:00:00 18.2 2 Norte 6 Norte 0 912.1 -- 61
2020-06-23 06:00:00 18.7 3 Noroeste 9 Noroeste 0 911.8 -- 61
2020-06-23 05:00:00 19 3 Norte 7 Norte 0 912 -- 59
2020-06-23 04:00:00 19.5 2 Sudeste 5 Este 0 912.4 -- 62
2020-06-23 03:00:00 20.4 3 Oeste 7 Oeste 0 912.6 -- 58
2020-06-23 02:00:00 21.3 0 Calma 15 Sudeste 0 912.8 -- 56
2020-06-23 01:00:00 22.3 5 Sudeste 19 Sudeste 0 913.2 -- 55
2020-06-23 00:00:00 23.9 9 Sudeste 22 Sudeste 0 913.3 -- 51
2020-06-22 23:00:00 25.7 11 Sudeste 25 Sudeste 0 912.6 -- 45
2020-06-22 22:00:00 28.2 3 Nordeste 8 Nordeste 0 911.4 -- 28
2020-06-22 21:00:00 30 4 Sudoeste 11 Noroeste 0 911.2 -- 23
2020-06-22 20:00:00 31.5 7 Oeste 15 Sudoeste 0 911.2 -- 21
2020-06-22 19:00:00 33 4 Sur 17 Sudoeste 0 911.3 -- 20
2020-06-22 18:00:00 33 4 Sur 17 Oeste 0 911.8 -- 20
2020-06-22 17:00:00 32.8 5 Noroeste 17 Sudoeste 0 912.4 -- 21
2020-06-22 16:00:00 32.4 7 Oeste 18 Sur 0 913.1 -- 21
2020-06-22 15:00:00 31.6 8 Sudeste 18 Sudeste 0 913.9 -- 22
2020-06-22 14:00:00 30.6 3 Este 15 Sur 0 914.7 -- 26
2020-06-22 13:00:00 29.6 8 Sudoeste 19 Sudoeste 0 915.1 -- 27
2020-06-22 12:00:00 27.8 8 Sur 18 Sur 0 915.3 -- 31
2020-06-22 11:00:00 26.4 11 Sur 21 Sudeste 0 915.4 -- 33
2020-06-22 10:00:00 24.7 3 Noroeste 6 Norte 0 915.6 -- 39
2020-06-22 09:00:00 20 2 Norte 4 Norte 0 915.6 -- 53
2020-06-22 08:00:00 17.7 2 Oeste 8 Norte 0 915.4 -- 59
2020-06-22 07:00:00 18.1 6 Norte 14 Norte 0 915.3 -- 54
2020-06-22 06:00:00 18.5 8 Norte 14 Norte 0 915.2 -- 55
2020-06-22 05:00:00 19.1 4 Nordeste 12 Norte 0 915.2 -- 55
2020-06-22 04:00:00 19.9 3 Noroeste 10 Norte 0 915.4 -- 53
2020-06-22 03:00:00 20.6 3 Sudoeste 12 Nordeste 0 915.5 -- 48
2020-06-22 02:00:00 21.2 4 Oeste 10 Noroeste 0 915.6 -- 44
2020-06-22 01:00:00 21.3 3 Noroeste 9 Norte 0 915.6 -- 37
2020-06-22 00:00:00 22.2 4 Norte 10 Nordeste 0 915.4 -- 35
2020-06-21 23:00:00 24.2 4 Norte 11 Nordeste 0 915 -- 31
2020-06-21 22:00:00 27.3 3 Nordeste 11 Norte 0 914.5 -- 25
2020-06-21 21:00:00 29.3 4 Norte 17 Noroeste 0 914.2 -- 21
2020-06-21 20:00:00 30.6 9 Noroeste 22 Noroeste 0 914 -- 17
2020-06-21 19:00:00 32.4 5 Noroeste 21 Noroeste 0 913.9 -- 16
2020-06-21 18:00:00 32.3 9 Noroeste 21 Norte 0 914.1 -- 17
2020-06-21 17:00:00 32.6 6 Oeste 21 Noroeste 0 914.4 -- 17
2020-06-21 16:00:00 32.2 7 Noroeste 23 Norte 0 914.8 -- 18
2020-06-21 15:00:00 31.4 9 Norte 21 Noroeste 0 915.1 -- 18
2020-06-21 14:00:00 30.7 8 Noroeste 21 Oeste 0 915.6 -- 17
2020-06-21 13:00:00 30 7 Noroeste 27 Noroeste 0 915.7 -- 20
2020-06-21 12:00:00 28.4 5 Nordeste 14 Noroeste 0 915.6 -- 24
2020-06-21 11:00:00 24.8 5 Noroeste 10 Noroeste 0 915.6 -- 31
2020-06-21 10:00:00 21.7 2 Nordeste 7 Noroeste 0 915.8 -- 39
2020-06-21 09:00:00 16.2 0 Calma 8 Nordeste 0 915.7 -- 51
2020-06-21 08:00:00 13.5 2 Norte 4 Norte 0 915.3 -- 56
2020-06-21 07:00:00 13.7 2 Sudoeste 6 Norte 0 914.7 -- 54
2020-06-21 06:00:00 14.1 0 Calma 4 Nordeste 0 914.5 -- 52
2020-06-21 05:00:00 14.7 0 Calma 5 Norte 0 914.4 -- 50
2020-06-21 04:00:00 15.7 2 Sur 8 Norte 0 914.5 -- 47
2020-06-21 03:00:00 16.5 0 Calma 5 Noroeste 0 914.7 -- 45
2020-06-21 02:00:00 17.7 2 Oeste 5 Sudoeste 0 914.8 -- 41
2020-06-21 01:00:00 19.3 2 Noroeste 8 Norte 0 915 -- 37
2020-06-21 00:00:00 21.2 2 Sur 9 Norte 0 914.8 -- 34
2020-06-20 23:00:00 23.4 3 Norte 10 Noroeste 0 914.5 -- 28
2020-06-20 22:00:00 25.7 4 Norte 17 Noroeste 0 913.8 -- 23
2020-06-20 21:00:00 27.8 7 Noroeste 17 Noroeste 0 913.4 -- 20
2020-06-20 20:00:00 28.9 10 Oeste 22 Oeste 0 913.2 -- 18
2020-06-20 19:00:00 30.2 9 Oeste 24 Sudoeste 0 913 -- 17
2020-06-20 18:00:00 30.7 11 Noroeste 27 Sudoeste 0 913.3 -- 17
2020-06-20 17:00:00 30.2 10 Oeste 31 Oeste 0 913.6 -- 18
2020-06-20 16:00:00 29.9 8 Oeste 32 Sudoeste 0 913.8 -- 19
2020-06-20 15:00:00 29.5 5 Oeste 27 Noroeste 0 914.1 -- 20
2020-06-20 14:00:00 28.1 10 Oeste 25 Sudoeste 0 914.5 -- 22
2020-06-20 13:00:00 27.3 11 Oeste 23 Sudoeste 0 914.6 -- 25
2020-06-20 12:00:00 25.4 5 Oeste 17 Oeste 0 914.6 -- 33
2020-06-20 11:00:00 23.1 4 Sudoeste 13 Oeste 0 914.6 -- 46
2020-06-20 10:00:00 20.7 5 Sur 12 Sudoeste 0 914.4 -- 61
2020-06-20 09:00:00 16.8 2 Oeste 5 Sudoeste 0 914.3 -- 83
2020-06-20 08:00:00 14.7 2 Oeste 7 Sudeste 0 913.9 -- 85
2020-06-20 07:00:00 14.8 4 Sudeste 6 Sudeste 0 913.5 -- 87
2020-06-20 06:00:00 15.3 0 Calma 8 Oeste 0 913.3 -- 84
2020-06-20 05:00:00 16.1 2 Oeste 6 Sur 0 913.1 -- 83
2020-06-20 04:00:00 16.9 3 Sudeste 8 Sur 0 913.2 -- 81
2020-06-20 03:00:00 17.7 4 Sudeste 16 Sur 0 913.4 -- 80
2020-06-20 02:00:00 18.7 8 Sudeste 23 Sudeste 0 913.5 -- 77
2020-06-20 01:00:00 19.6 13 Sudeste 25 Este 0 913.4 -- 73
2020-06-20 00:00:00 20.6 8 Sur 23 Sudeste 0 913.2 -- 51
2020-06-19 23:00:00 22.6 0 Calma 5 Norte 0 912.1 -- 35
2020-06-19 22:00:00 24.4 3 Noroeste 10 Oeste 0 911.4 -- 32
2020-06-19 21:00:00 25.9 5 Noroeste 13 Noroeste 0 910.8 -- 27
2020-06-19 20:00:00 26.9 5 Noroeste 21 Oeste 0 910.4 -- 26
2020-06-19 19:00:00 27.9 9 Oeste 25 Oeste 0 910.3 -- 23
2020-06-19 18:00:00 27.6 8 Oeste 24 Noroeste 0 910.2 -- 24
2020-06-19 17:00:00 28.5 9 Noroeste 32 Oeste 0 910.2 -- 24
2020-06-19 16:00:00 28.2 13 Sudoeste 28 Oeste 0 910.5 -- 24
2020-06-19 15:00:00 25.6 10 Oeste 24 Sudoeste 0 910.8 -- 32
2020-06-19 14:00:00 25.8 10 Sudoeste 21 Sur 0 910.9 -- 36
2020-06-19 13:00:00 23.6 8 Sur 22 Sudoeste 0 911 -- 44
2020-06-19 12:00:00 22.5 8 Sur 20 Sudeste 0 911.1 -- 53
2020-06-19 11:00:00 20.4 7 Sur 21 Sudeste 0 910.9 -- 62
2020-06-19 10:00:00 18.7 10 Sudeste 22 Sudeste 0 910.9 -- 68
2020-06-19 09:00:00 17 10 Sur 22 Sur 0 910.6 -- 78
2020-06-19 08:00:00 16.4 8 Sur 20 Sudeste 0 910.1 -- 81
2020-06-19 07:00:00 15.9 8 Sur 21 Sudeste 0 909.8 -- 84
2020-06-19 06:00:00 15.8 8 Sudeste 22 Sur 0 909.3 -- 84
2020-06-19 05:00:00 16.2 7 Sudeste 30 Sudeste 0 908.8 -- 81
2020-06-19 04:00:00 16.1 6 Sur 18 Sudeste 0 908.9 -- 81
2020-06-19 03:00:00 16.8 8 Sudeste 28 Sudeste 0 908.8 -- 79
2020-06-19 02:00:00 17.3 11 Sudeste 25 Sudeste 0 908.8 -- 78
2020-06-19 01:00:00 17.8 10 Sudeste 26 Sur 0 908.9 -- 77
2020-06-19 00:00:00 18.8 14 Sudeste 30 Sur 0 908.6 -- 71
2020-06-18 23:00:00 22 8 Sudeste 27 Sudeste 0 907.9 -- 39
2020-06-18 22:00:00 23.5 3 Noroeste 9 Noroeste 0 907 -- 30
2020-06-18 21:00:00 24.3 5 Oeste 18 Noroeste 0 906.5 -- 27
2020-06-18 20:00:00 25.2 8 Oeste 24 Oeste 0 906.1 -- 25
2020-06-18 19:00:00 27.3 11 Oeste 19 Sudoeste 0 905.7 -- 23
2020-06-18 18:00:00 27.3 8 Sudoeste 25 Oeste 0 905.6 -- 24
2020-06-18 17:00:00 26.6 6 Noroeste 23 Oeste 0 906 -- 25
2020-06-18 16:00:00 26.4 9 Oeste 21 Sudoeste 0 906.4 -- 29
2020-06-18 15:00:00 24.7 6 Sudoeste 27 Sudoeste 0 906.6 -- 32
2020-06-18 14:00:00 24.5 10 Sudoeste 22 Sur 0 906.8 -- 31
2020-06-18 13:00:00 23.8 8 Oeste 19 Oeste 0 907.1 -- 32
2020-06-18 12:00:00 22.6 10 Sudoeste 20 Sudoeste 0 907.1 -- 37
2020-06-18 11:00:00 20.5 7 Sudoeste 15 Sur 0 907.1 -- 52
2020-06-18 10:00:00 18.4 7 Sudeste 16 Sudeste 0 907.2 -- 63
2020-06-18 09:00:00 15.9 8 Sudeste 15 Sudeste 0 907 -- 78
2020-06-18 08:00:00 14.1 3 Sudeste 6 Sudeste 0 906.7 -- 84
2020-06-18 07:00:00 14.2 3 Sudeste 17 Sudeste 0 906.5 -- 83
2020-06-18 06:00:00 14.7 8 Sudeste 18 Sudeste 0 906.1 -- 83
2020-06-18 05:00:00 15.5 9 Sudeste 21 Sudeste 0 906.1 -- 80
2020-06-18 04:00:00 15.6 6 Sur 18 Sudeste 0 906.7 -- 79
2020-06-18 03:00:00 15.6 6 Sudeste 19 Sur 0 907.1 -- 78
2020-06-18 02:00:00 15.5 6 Sudeste 19 Sudeste 0 907.3 -- 78
2020-06-18 01:00:00 16.2 10 Sudeste 24 Sudeste 0 907.5 -- 75
2020-06-18 00:00:00 18 13 Sudeste 27 Sudeste 0 907.4 -- 56
2020-06-17 23:00:00 19.9 2 Norte 7 Norte 0 907.2 -- 35
2020-06-17 22:00:00 20.8 0 Calma 16 Noroeste 0 906.8 -- 32
2020-06-17 21:00:00 21.7 9 Noroeste 17 Oeste 0 906.5 -- 29
2020-06-17 20:00:00 22.8 8 Noroeste 22 Oeste 0 906.3 -- 28
2020-06-17 19:00:00 23.7 7 Oeste 27 Oeste 0 906.4 -- 26
2020-06-17 18:00:00 24.3 9 Oeste 25 Oeste 0 906.7 -- 26
2020-06-17 17:00:00 23.9 8 Noroeste 22 Sudoeste 0 907 -- 27
2020-06-17 16:00:00 24.1 8 Oeste 27 Sudoeste 0 907.3 -- 27
2020-06-17 15:00:00 23.3 9 Oeste 26 Oeste 0 907.7 -- 30
2020-06-17 14:00:00 22 10 Oeste 23 Oeste 0 908.1 -- 35
2020-06-17 13:00:00 21.9 11 Sudoeste 25 Oeste 0 908.5 -- 38
2020-06-17 12:00:00 20.2 9 Oeste 19 Sudoeste 0 908.6 -- 44
2020-06-17 11:00:00 18.3 6 Sudoeste 13 Sudoeste 0 908.7 -- 56
2020-06-17 10:00:00 15.9 6 Sur 12 Sur 0 908.8 -- 67
2020-06-17 09:00:00 12.6 2 Sudoeste 5 Sudoeste 0 909 -- 83
2020-06-17 08:00:00 10.1 2 Sudoeste 7 Noroeste 0 908.9 -- 87
2020-06-17 07:00:00 10.2 3 Norte 5 Norte 0 908.7 -- 86
2020-06-17 06:00:00 10.6 0 Calma 4 Sur 0 908.4 -- 85
2020-06-17 05:00:00 10.9 3 Norte 7 Sudoeste 0 908.5 -- 85
2020-06-17 04:00:00 11.7 2 Sur 5 Norte 0 908.6 -- 85
2020-06-17 03:00:00 12.4 3 Sudoeste 8 Sudoeste 0 909.4 -- 83
2020-06-17 02:00:00 13.4 4 Este 7 Sudeste 0 909.8 -- 82
2020-06-17 01:00:00 14.4 4 Norte 11 Noroeste 0 910.1 -- 77
2020-06-17 00:00:00 15.2 4 Norte 17 Oeste 0 910.4 -- 73
2020-06-16 23:00:00 15.6 5 Nordeste 27 Oeste 1.6 910.3 -- 72
2020-06-16 22:00:00 17.3 15 Oeste 45 Oeste 0.6 911 -- 63
2020-06-16 21:00:00 21.4 7 Noroeste 26 Noroeste 0 909 -- 33
2020-06-16 20:00:00 22.7 9 Noroeste 32 Noroeste 0 908.8 -- 29
2020-06-16 19:00:00 23.4 14 Noroeste 30 Oeste 0 908.9 -- 26
2020-06-16 18:00:00 24.6 12 Oeste 34 Oeste 0 908.9 -- 26
2020-06-16 17:00:00 24.2 10 Noroeste 31 Noroeste 0 909.2 -- 29
2020-06-16 16:00:00 24 13 Oeste 28 Norte 0 909.6 -- 32
2020-06-16 15:00:00 23.2 13 Noroeste 29 Noroeste 0 909.9 -- 36
2020-06-16 14:00:00 21.1 11 Noroeste 23 Oeste 0 910.2 -- 38
2020-06-16 13:00:00 20.6 10 Noroeste 22 Noroeste 0 910.5 -- 42
2020-06-16 12:00:00 21 6 Noroeste 18 Noroeste 0 910.5 -- 47
2020-06-16 11:00:00 19.9 7 Oeste 15 Norte 0 910.7 -- 48
2020-06-16 10:00:00 17.6 2 Sudeste 6 Sudeste 0 911.1 -- 48
2020-06-16 09:00:00 13.5 2 Norte 5 Noroeste 0 911.3 -- 60
2020-06-16 08:00:00 11.3 0 Calma 6 Sudoeste 0 911.2 -- 63
2020-06-16 07:00:00 11.3 0 Calma 4 Sudoeste 0 910.9 -- 63
2020-06-16 06:00:00 11.9 0 Calma 6 Nordeste 0 910.4 -- 59
2020-06-16 05:00:00 12.5 4 Norte 6 Norte 0 910.5 -- 57
2020-06-16 04:00:00 13.6 0 Calma 4 Sur 0 910.6 -- 52
2020-06-16 03:00:00 14.4 3 Oeste 5 Norte 0 911.1 -- 48
2020-06-16 02:00:00 15.7 2 Sudoeste 8 Nordeste 0 911.6 -- 45
2020-06-16 01:00:00 17 0 Calma 5 Oeste 0 911.8 -- 40
2020-06-16 00:00:00 18.5 2 Norte 4 Norte 0 912.3 -- 36
2020-06-15 23:00:00 20.3 0 Calma 10 Norte 0 912.2 -- 32
2020-06-15 22:00:00 22 3 Noroeste 17 Noroeste 0 911.9 -- 29
2020-06-15 21:00:00 23.7 8 Oeste 22 Noroeste 0 911.4 -- 24
2020-06-15 20:00:00 24.8 12 Oeste 26 Oeste 0 911.5 -- 18
2020-06-15 19:00:00 26.1 12 Oeste 29 Noroeste 0 911.4 -- 19
2020-06-15 18:00:00 26.6 14 Sudoeste 28 Oeste 0 911.6 -- 20
2020-06-15 17:00:00 26.6 11 Oeste 31 Oeste 0 911.9 -- 19
2020-06-15 16:00:00 25.8 11 Noroeste 34 Oeste 0 912.3 -- 22
2020-06-15 15:00:00 25.6 8 Oeste 23 Noroeste 0 912.5 -- 26
2020-06-15 14:00:00 24.1 6 Oeste 26 Sudoeste 0 913.2 -- 26
2020-06-15 13:00:00 23.5 10 Oeste 32 Noroeste 0 913.5 -- 29
2020-06-15 12:00:00 22.1 10 Oeste 24 Oeste 0 913.5 -- 32
2020-06-15 11:00:00 20.6 5 Noroeste 11 Oeste 0 913.4 -- 42
2020-06-15 10:00:00 17.5 4 Sur 9 Sudoeste 0 913.5 -- 48
2020-06-15 09:00:00 12.4 0 Calma 5 Oeste 0 913.5 -- 64
2020-06-15 08:00:00 10.1 2 Sur 5 Oeste 0 913.4 -- 69
2020-06-15 07:00:00 10.2 0 Calma 6 Noroeste 0 913 -- 69
2020-06-15 06:00:00 10.6 2 Sudoeste 7 Oeste 0 912.4 -- 65
2020-06-15 05:00:00 11.4 0 Calma 5 Oeste 0 912.1 -- 63
2020-06-15 04:00:00 12.2 2 Sudoeste 5 Norte 0 912.3 -- 59
2020-06-15 03:00:00 13.2 2 Noroeste 5 Norte 0 912.5 -- 56
2020-06-15 02:00:00 14.2 2 Norte 6 Norte 0 912.6 -- 53
2020-06-15 01:00:00 15.5 2 Noroeste 6 Norte 0 912.7 -- 49
2020-06-15 00:00:00 17.1 2 Nordeste 8 Norte 0 912.5 -- 43